Weather at London Gatwick Airport

Public forecast

Using degrees Celsius for public forecast. Weather courtesy of forecast.io.

Current aviation weather report (METAR) for London Gatwick Airport

Retrieved 2021/11/27 13:50 UTC (22 minutes ago):

EGKK 271350Z 32016KT 9999 -RA BKN010 04/02 Q0997

Aviation forecast (TAF) for London Gatwick Airport

Retrieved 2021/11/27 12:00 UTC (2 hours ago):

TAF EGKK 271058Z 2712/2818 34015G25KT 9999 SCT015 TEMPO 2712/2721 7000 -RA BKN010 PROB30 TEMPO 2712/2715 4000 RA BKN008 PROB30 TEMPO 2714/2721 33020G36KT PROB30 TEMPO 2721/2806 BKN012 BECMG 2803/2806 33012KT PROB30 TEMPO 2806/2810 34015G25KT